createdAt,value
2023-02-01T00:01:50.187Z,6.20
2023-02-01T00:06:53.933Z,6.10
2023-02-01T00:12:00.398Z,6.10
2023-02-01T00:17:04.094Z,6.10
2023-02-01T00:22:07.785Z,6.10
2023-02-01T00:27:18.552Z,6.00
2023-02-01T00:32:22.278Z,6.10
2023-02-01T00:37:26.143Z,6.10
2023-02-01T00:42:32.557Z,6.10
2023-02-01T00:47:36.341Z,6.10
2023-02-01T00:52:40.025Z,6.00
2023-02-01T00:57:45.118Z,6.10
2023-02-01T01:02:48.835Z,6.10
2023-02-01T01:07:52.564Z,6.10
2023-02-01T01:12:57.954Z,6.10
2023-02-01T01:18:01.604Z,6.10
2023-02-01T01:23:06.289Z,6.10
2023-02-01T01:28:11.395Z,6.00
2023-02-01T01:33:15.160Z,6.10
2023-02-01T01:38:18.855Z,6.00
2023-02-01T01:43:24.314Z,6.00
2023-02-01T01:48:32.144Z,6.00
2023-02-01T01:53:46.390Z,5.90
2023-02-01T01:58:51.478Z,5.90
2023-02-01T02:03:56.981Z,5.90
2023-02-01T02:09:00.713Z,5.90
2023-02-01T02:14:09.198Z,5.90
2023-02-01T02:19:35.345Z,5.90
2023-02-01T02:25:06.591Z,5.90
2023-02-01T02:30:48.140Z,6.00
2023-02-01T02:35:58.306Z,5.90
2023-02-01T02:41:09.013Z,5.90
2023-02-01T02:46:40.894Z,5.90
2023-02-01T02:52:09.057Z,5.90
2023-02-01T02:57:33.923Z,5.90
2023-02-01T03:02:56.339Z,5.90
2023-02-01T03:08:06.431Z,5.90
2023-02-01T03:13:13.674Z,5.90
2023-02-01T03:18:21.378Z,5.90
2023-02-01T03:23:31.752Z,5.90
2023-02-01T03:28:38.468Z,5.90
2023-02-01T03:33:43.846Z,6.00
2023-02-01T03:38:54.155Z,6.00
2023-02-01T03:44:05.134Z,6.00
2023-02-01T03:49:11.858Z,5.90
2023-02-01T03:54:20.047Z,5.90
2023-02-01T03:59:25.115Z,5.90
2023-02-01T04:04:29.031Z,5.90
2023-02-01T04:09:35.255Z,5.90
2023-02-01T04:14:38.869Z,5.90
2023-02-01T04:19:42.523Z,5.80
2023-02-01T04:24:47.565Z,5.80
2023-02-01T04:29:51.576Z,5.80
2023-02-01T04:34:55.231Z,5.80
2023-02-01T04:40:00.323Z,5.80
2023-02-01T04:45:04.378Z,5.80
2023-02-01T04:50:11.425Z,5.80
2023-02-01T04:55:16.761Z,5.80
2023-02-01T05:00:21.202Z,5.80
2023-02-01T05:05:25.106Z,5.80
2023-02-01T05:10:30.259Z,5.90
2023-02-01T05:15:34.156Z,5.90
2023-02-01T05:20:37.849Z,5.90
2023-02-01T05:25:42.898Z,6.00
2023-02-01T05:30:46.732Z,6.00
2023-02-01T05:35:51.597Z,6.10
2023-02-01T05:40:56.620Z,6.10
2023-02-01T05:46:00.397Z,6.20
2023-02-01T05:51:04.199Z,6.20
2023-02-01T05:56:09.631Z,6.30
2023-02-01T06:01:13.920Z,6.30
2023-02-01T06:06:17.757Z,6.30
2023-02-01T06:11:32.442Z,6.30
2023-02-01T06:16:36.700Z,6.30
2023-02-01T06:21:40.583Z,6.30
2023-02-01T06:26:45.727Z,6.30
2023-02-01T06:31:49.469Z,6.30
2023-02-01T06:36:53.140Z,6.20
2023-02-01T06:41:58.510Z,6.30
2023-02-01T06:47:02.289Z,6.30
2023-02-01T06:52:06.303Z,6.30
2023-02-01T06:57:11.332Z,6.30
2023-02-01T07:02:15.188Z,6.30
2023-02-01T07:07:20.613Z,6.30
2023-02-01T07:12:25.664Z,6.30
2023-02-01T07:17:30.295Z,6.30
2023-02-01T07:22:34.020Z,6.30
2023-02-01T07:27:39.388Z,6.30
2023-02-01T07:32:43.306Z,6.30
2023-02-01T07:37:47.028Z,6.30
2023-02-01T07:42:52.113Z,6.30
2023-02-01T07:47:55.943Z,6.30
2023-02-01T07:53:01.678Z,6.20
2023-02-01T07:58:07.332Z,6.30
2023-02-01T08:03:11.095Z,6.30
2023-02-01T08:08:14.715Z,6.40
2023-02-01T08:13:19.770Z,6.40
2023-02-01T08:18:23.584Z,6.50
2023-02-01T08:23:27.289Z,6.50
2023-02-01T08:28:32.379Z,6.60
2023-02-01T08:33:36.853Z,6.60
2023-02-01T08:38:41.831Z,6.70
2023-02-01T08:43:47.500Z,6.90
2023-02-01T08:48:51.800Z,6.90
2023-02-01T08:53:55.543Z,7.00
2023-02-01T08:59:00.600Z,7.10
2023-02-01T09:04:04.468Z,7.10
2023-02-01T09:09:08.307Z,7.20
2023-02-01T09:14:13.295Z,7.30
2023-02-01T09:19:25.825Z,7.40
2023-02-01T09:24:30.376Z,7.50
2023-02-01T09:29:35.465Z,7.90
2023-02-01T09:34:39.197Z,8.20
2023-02-01T09:39:43.785Z,8.20
2023-02-01T09:45:06.833Z,8.30
2023-02-01T09:50:17.949Z,8.30
2023-02-01T09:55:28.322Z,8.40
2023-02-01T10:00:38.121Z,8.60
2023-02-01T10:06:03.523Z,8.90
2023-02-01T10:11:20.425Z,9.10
2023-02-01T10:16:39.291Z,9.30
2023-02-01T10:21:55.694Z,9.30
2023-02-01T10:27:03.990Z,9.10
2023-02-01T10:32:16.101Z,9.00
2023-02-01T10:37:28.822Z,8.70
2023-02-01T10:42:33.608Z,8.60
2023-02-01T10:47:38.720Z,8.50
2023-02-01T10:52:46.211Z,8.50
2023-02-01T10:57:58.679Z,8.50
2023-02-01T11:03:23.052Z,8.50
2023-02-01T11:08:27.302Z,8.50
2023-02-01T11:13:34.196Z,8.50
2023-02-01T11:18:40.443Z,8.50
2023-02-01T11:23:46.723Z,8.40
2023-02-01T11:28:55.311Z,8.50
2023-02-01T11:34:08.015Z,8.60
2023-02-01T11:39:25.294Z,8.60
2023-02-01T11:44:34.009Z,8.60
2023-02-01T11:49:39.792Z,8.50
2023-02-01T11:55:01.640Z,8.50
2023-02-01T12:00:30.944Z,8.50
2023-02-01T12:05:43.000Z,8.50
2023-02-01T12:10:59.666Z,8.60
2023-02-01T12:16:11.848Z,8.50
2023-02-01T12:21:38.343Z,8.50
2023-02-01T12:26:53.331Z,8.40
2023-02-01T12:32:08.718Z,8.50
2023-02-01T12:37:29.980Z,8.50
2023-02-01T12:42:39.816Z,8.50
2023-02-01T12:47:49.582Z,8.50
2023-02-01T12:52:57.261Z,8.50
2023-02-01T12:58:08.815Z,8.60
2023-02-01T13:03:19.327Z,8.70
2023-02-01T13:08:27.354Z,8.80
2023-02-01T13:13:40.136Z,8.90
2023-02-01T13:18:47.653Z,9.10
2023-02-01T13:23:54.693Z,9.10
2023-02-01T13:29:02.110Z,9.30
2023-02-01T13:34:45.597Z,9.30
2023-02-01T13:40:01.864Z,9.30
2023-02-01T13:45:08.000Z,9.30
2023-02-01T13:50:25.471Z,9.40
2023-02-01T13:55:36.733Z,9.40
2023-02-01T14:00:44.030Z,9.30
2023-02-01T14:06:03.656Z,9.20
2023-02-01T14:11:09.038Z,9.10
2023-02-01T14:16:18.466Z,9.10
2023-02-01T14:21:26.385Z,9.00
2023-02-01T14:26:46.913Z,9.00
2023-02-01T14:31:57.925Z,8.90
2023-02-01T14:37:04.341Z,8.90
2023-02-01T14:42:24.562Z,8.90
2023-02-01T14:47:34.232Z,8.90
2023-02-01T14:52:43.361Z,8.90
2023-02-01T14:57:52.093Z,8.90
2023-02-01T15:02:58.327Z,8.80
2023-02-01T15:08:15.832Z,8.80
2023-02-01T15:13:25.839Z,8.70
2023-02-01T15:18:29.820Z,8.80
2023-02-01T15:23:34.701Z,8.70
2023-02-01T15:28:39.793Z,8.80
2023-02-01T15:33:58.540Z,8.80
2023-02-01T15:39:19.481Z,8.80
2023-02-01T15:44:33.228Z,8.80
2023-02-01T15:49:41.509Z,8.70
2023-02-01T15:54:50.817Z,8.70
2023-02-01T15:59:57.643Z,8.70
2023-02-01T16:05:01.977Z,8.70
2023-02-01T16:10:25.077Z,8.70
2023-02-01T16:15:30.825Z,8.70
2023-02-01T16:20:36.310Z,8.70
2023-02-01T16:25:41.264Z,8.60
2023-02-01T16:30:46.473Z,8.60
2023-02-01T16:35:51.171Z,8.50
2023-02-01T16:40:54.939Z,8.50
2023-02-01T16:46:04.549Z,8.50
2023-02-01T16:51:12.508Z,8.50
2023-02-01T16:56:17.989Z,8.50
2023-02-01T17:01:23.446Z,8.50
2023-02-01T17:06:28.772Z,8.50
2023-02-01T17:11:33.008Z,8.50
2023-02-01T17:16:38.043Z,8.50
2023-02-01T17:21:45.053Z,8.40
2023-02-01T17:26:49.805Z,8.40
2023-02-01T17:31:57.047Z,8.40
2023-02-01T17:37:00.827Z,8.40
2023-02-01T17:42:05.024Z,8.40
2023-02-01T17:47:10.100Z,8.40
2023-02-01T17:52:18.718Z,8.40
2023-02-01T17:57:22.935Z,8.40
2023-02-01T18:02:28.161Z,8.40
2023-02-01T18:07:31.850Z,8.30
2023-02-01T18:12:37.166Z,8.40
2023-02-01T18:17:43.041Z,8.40
2023-02-01T18:22:48.607Z,8.40
2023-02-01T18:27:53.391Z,8.50
2023-02-01T18:32:58.704Z,8.50
2023-02-01T18:38:02.474Z,8.50
2023-02-01T18:43:06.363Z,8.60
2023-02-01T18:48:12.603Z,8.50
2023-02-01T18:53:20.007Z,8.60
2023-02-01T18:58:26.432Z,8.60
2023-02-01T19:03:31.610Z,8.60
2023-02-01T19:08:35.344Z,8.60
2023-02-01T19:13:39.674Z,8.60
2023-02-01T19:18:44.748Z,8.60
2023-02-01T19:23:48.398Z,8.70
2023-02-01T19:28:52.021Z,8.70
2023-02-01T19:33:57.149Z,8.70
2023-02-01T19:39:00.993Z,8.70
2023-02-01T19:44:05.821Z,8.60
2023-02-01T19:49:12.254Z,8.60
2023-02-01T19:54:16.413Z,8.60
2023-02-01T19:59:22.853Z,8.60
2023-02-01T20:04:28.891Z,8.70
2023-02-01T20:09:34.052Z,8.60
2023-02-01T20:14:38.355Z,8.70
2023-02-01T20:19:43.455Z,8.60
2023-02-01T20:24:47.162Z,8.60
2023-02-01T20:29:51.689Z,8.60
2023-02-01T20:34:56.731Z,8.60
2023-02-01T20:40:00.406Z,8.60
2023-02-01T20:45:04.370Z,8.60
2023-02-01T20:50:11.195Z,8.60
2023-02-01T20:55:14.944Z,8.60
2023-02-01T21:00:19.433Z,8.60
2023-02-01T21:05:25.586Z,8.60
2023-02-01T21:10:29.492Z,8.70
2023-02-01T21:15:34.661Z,8.70
2023-02-01T21:20:39.771Z,8.70
2023-02-01T21:25:44.391Z,8.70
2023-02-01T21:30:48.072Z,8.70
2023-02-01T21:35:53.376Z,8.80
2023-02-01T21:41:11.051Z,8.80
2023-02-01T21:46:14.822Z,8.80
2023-02-01T21:51:20.503Z,8.80
2023-02-01T21:56:25.037Z,8.80
2023-02-01T22:01:29.333Z,8.80
2023-02-01T22:06:36.711Z,8.80
2023-02-01T22:11:40.382Z,8.80
2023-02-01T22:16:44.458Z,8.80
2023-02-01T22:21:50.374Z,8.80
2023-02-01T22:26:54.114Z,8.80
2023-02-01T22:31:57.904Z,8.80
2023-02-01T22:37:03.062Z,8.80
2023-02-01T22:42:06.810Z,8.80
2023-02-01T22:47:10.474Z,8.80
2023-02-01T22:52:15.556Z,8.80
2023-02-01T22:57:19.239Z,8.80
2023-02-01T23:02:22.978Z,8.80
2023-02-01T23:07:28.027Z,8.80
2023-02-01T23:12:31.834Z,8.80
2023-02-01T23:17:35.879Z,8.80
2023-02-01T23:22:41.003Z,8.80
2023-02-01T23:27:45.794Z,8.70
2023-02-01T23:32:49.451Z,8.70
2023-02-01T23:37:54.478Z,8.70
2023-02-01T23:43:12.026Z,8.70
2023-02-01T23:48:15.808Z,8.60
2023-02-01T23:53:20.837Z,8.70
2023-02-01T23:58:24.779Z,8.70
